Terminal Aerodrome Forecast
Issued by NWS

Home | Current Version | Previous Version | Graphics & Text | Print | Product List | Glossary On
Versions: 1 2 3 4 5 6 7 8 9 10 11 12 13 14 15 16 17 18 19 20 21 22 23 24 25
000
FTUS43 KBIS 232200 AAA
TAFMOT
TAF AMD
KMOT 232211Z 2322/2418 30019G28KT 2SM -SN BKN014
     FM232300 29022G32KT 6SM -SN OVC015
     FM240100 31018KT P6SM OVC020
     FM240700 31012KT P6SM SCT025 SCT080=

USA.gov is the U.S. government's official web portal to all federal, state and local government web resources and services.